首页
METAR-TAF:

METAR-TAF

机场 :

阿巴斯港國際機場

阿巴斯港, 伊朗

纬度: 27-13N, 经度: 056-22E, 海拔: 10米

当前天气观测

该预报发布于39分钟前的05:30 UTC
风速4节,风向
温度 34°C
湿度 67%
气压 1008 hPa
能見度: 5000

METAR: OIKB 230530Z 10004KT 5000 HZ NSC 34/27 Q1007 A2976

时间: 09:39 (06:09 UTC)

预报

该预报发布于6小时和59分钟前的23:10 UTC
预报有效从23日的 00点(UTC)到 24日的 06点(UTC)
风速8节,风向东北
能見度: 4000
轻雾
短暂存在
从 23日的 00点(UTC)到 23日的 04点(UTC)
能見度: 2000
多云层高于2500英尺
轻雾
成为
从 23日的 06点(UTC)到 23日的 08点(UTC)
能見度: 6000
成为
从 23日的 16点(UTC)到 23日的 18点(UTC)
风速8节,风向东转东南
能見度: 4000

TAF: OIKB 222310Z 2300/2406 04008KT 4000 BR NSC TEMPO 2300/2304 2000 BR BKN025 BECMG 2306/2308 6000 BECMG 2316/2318 12008KT 4000 HZ

超过4000个机场的气象观测和天气预报(METAR&TAF报告)。

可查询的气象台以黄色和红色小点在地图上表示。

将鼠标移到小点上方,可查看气象台名称。

然后点击查看天气观测和预报。

如需切换地图:点击带黑十字的绿色按钮放大地图;点击带横线的绿色按钮缩小地图;或者点击绿色箭头查看邻近地区的地图。


METAR-TAF: